sensor_id;sensor_type;location;lat;lon;timestamp;P1;durP1;ratioP1;P2;durP2;ratioP2
21833;SDS011;11079;51.092;3.458;2023-01-16T00:42:46;5.27;;;2.00;;
21833;SDS011;11079;51.092;3.458;2023-01-16T00:52:00;4.53;;;2.37;;
21833;SDS011;11079;51.092;3.458;2023-01-16T01:15:21;4.53;;;1.30;;
21833;SDS011;11079;51.092;3.458;2023-01-16T01:18:04;6.17;;;1.27;;
21833;SDS011;11079;51.092;3.458;2023-01-16T01:21:04;2.53;;;1.30;;
21833;SDS011;11079;51.092;3.458;2023-01-16T01:26:44;9.00;;;1.50;;
21833;SDS011;11079;51.092;3.458;2023-01-16T01:32:54;5.17;;;1.20;;
21833;SDS011;11079;51.092;3.458;2023-01-16T01:35:51;5.33;;;1.53;;
21833;SDS011;11079;51.092;3.458;2023-01-16T01:38:26;4.40;;;1.30;;
21833;SDS011;11079;51.092;3.458;2023-01-16T01:40:54;7.83;;;1.53;;
21833;SDS011;11079;51.092;3.458;2023-01-16T01:49:54;5.30;;;2.10;;
21833;SDS011;11079;51.092;3.458;2023-01-16T01:52:48;11.00;;;2.10;;
21833;SDS011;11079;51.092;3.458;2023-01-16T01:59:12;8.10;;;2.40;;
21833;SDS011;11079;51.092;3.458;2023-01-16T02:02:27;7.07;;;2.67;;
21833;SDS011;11079;51.092;3.458;2023-01-16T02:16:13;8.47;;;2.30;;
21833;SDS011;11079;51.092;3.458;2023-01-16T02:19:05;7.27;;;1.67;;
21833;SDS011;11079;51.092;3.458;2023-01-16T02:35:37;7.77;;;2.20;;
21833;SDS011;11079;51.092;3.458;2023-01-16T02:58:27;5.00;;;2.10;;
21833;SDS011;11079;51.092;3.458;2023-01-16T03:01:07;12.27;;;2.97;;
21833;SDS011;11079;51.092;3.458;2023-01-16T03:14:19;9.60;;;2.77;;
21833;SDS011;11079;51.092;3.458;2023-01-16T03:17:03;10.70;;;3.00;;
21833;SDS011;11079;51.092;3.458;2023-01-16T03:23:30;9.77;;;2.90;;
21833;SDS011;11079;51.092;3.458;2023-01-16T03:40:09;0.20;;;0.20;;
21833;SDS011;11079;51.092;3.458;2023-01-16T03:42:47;0.20;;;0.20;;
21833;SDS011;11079;51.092;3.458;2023-01-16T03:51:11;0.50;;;0.50;;
21833;SDS011;11079;51.092;3.458;2023-01-16T03:53:50;0.33;;;0.33;;
21833;SDS011;11079;51.092;3.458;2023-01-16T03:56:29;0.20;;;0.20;;
21833;SDS011;11079;51.092;3.458;2023-01-16T03:59:04;0.20;;;0.20;;
21833;SDS011;11079;51.092;3.458;2023-01-16T04:01:46;0.30;;;0.30;;
21833;SDS011;11079;51.092;3.458;2023-01-16T04:07:29;0.30;;;0.30;;
21833;SDS011;11079;51.092;3.458;2023-01-16T04:10:34;0.30;;;0.30;;
21833;SDS011;11079;51.092;3.458;2023-01-16T04:16:29;12.43;;;1.50;;
21833;SDS011;11079;51.092;3.458;2023-01-16T04:19:04;0.30;;;0.30;;
21833;SDS011;11079;51.092;3.458;2023-01-16T04:21:37;0.20;;;0.20;;
21833;SDS011;11079;51.092;3.458;2023-01-16T04:27:09;0.30;;;0.30;;
21833;SDS011;11079;51.092;3.458;2023-01-16T04:29:45;0.20;;;0.20;;
21833;SDS011;11079;51.092;3.458;2023-01-16T04:32:14;0.20;;;0.20;;
21833;SDS011;11079;51.092;3.458;2023-01-16T04:34:40;0.20;;;0.20;;
21833;SDS011;11079;51.092;3.458;2023-01-16T04:37:11;0.40;;;0.40;;
21833;SDS011;11079;51.092;3.458;2023-01-16T04:39:39;0.30;;;0.30;;
21833;SDS011;11079;51.092;3.458;2023-01-16T04:42:14;0.30;;;0.30;;
21833;SDS011;11079;51.092;3.458;2023-01-16T04:44:40;0.20;;;0.20;;
21833;SDS011;11079;51.092;3.458;2023-01-16T04:47:06;1.00;;;0.73;;
21833;SDS011;11079;51.092;3.458;2023-01-16T04:49:32;0.30;;;0.30;;
21833;SDS011;11079;51.092;3.458;2023-01-16T04:51:58;0.30;;;0.30;;
21833;SDS011;11079;51.092;3.458;2023-01-16T04:54:24;0.20;;;0.20;;
21833;SDS011;11079;51.092;3.458;2023-01-16T04:56:49;0.20;;;0.20;;
21833;SDS011;11079;51.092;3.458;2023-01-16T04:59:15;0.20;;;0.20;;
21833;SDS011;11079;51.092;3.458;2023-01-16T05:01:41;0.30;;;0.30;;
21833;SDS011;11079;51.092;3.458;2023-01-16T05:04:12;1.37;;;1.30;;
21833;SDS011;11079;51.092;3.458;2023-01-16T05:06:39;4.27;;;1.80;;
21833;SDS011;11079;51.092;3.458;2023-01-16T05:09:17;0.20;;;0.20;;
21833;SDS011;11079;51.092;3.458;2023-01-16T05:11:50;0.30;;;0.30;;
21833;SDS011;11079;51.092;3.458;2023-01-16T05:14:26;0.20;;;0.20;;
21833;SDS011;11079;51.092;3.458;2023-01-16T05:16:54;0.30;;;0.30;;
21833;SDS011;11079;51.092;3.458;2023-01-16T05:19:31;0.30;;;0.30;;
21833;SDS011;11079;51.092;3.458;2023-01-16T05:21:58;0.30;;;0.30;;
21833;SDS011;11079;51.092;3.458;2023-01-16T05:24:23;0.30;;;0.30;;
21833;SDS011;11079;51.092;3.458;2023-01-16T05:26:49;0.40;;;0.40;;
21833;SDS011;11079;51.092;3.458;2023-01-16T05:29:23;0.30;;;0.30;;
21833;SDS011;11079;51.092;3.458;2023-01-16T05:32:14;6.17;;;2.30;;
21833;SDS011;11079;51.092;3.458;2023-01-16T05:34:58;0.30;;;0.30;;
21833;SDS011;11079;51.092;3.458;2023-01-16T05:37:55;0.30;;;0.30;;
21833;SDS011;11079;51.092;3.458;2023-01-16T05:40:30;0.30;;;0.30;;
21833;SDS011;11079;51.092;3.458;2023-01-16T05:43:04;0.30;;;0.30;;
21833;SDS011;11079;51.092;3.458;2023-01-16T05:51:18;0.30;;;0.30;;
21833;SDS011;11079;51.092;3.458;2023-01-16T05:56:44;0.30;;;0.30;;
21833;SDS011;11079;51.092;3.458;2023-01-16T05:59:12;0.30;;;0.30;;
21833;SDS011;11079;51.092;3.458;2023-01-16T06:01:38;0.30;;;0.30;;
21833;SDS011;11079;51.092;3.458;2023-01-16T06:04:47;0.30;;;0.30;;
21833;SDS011;11079;51.092;3.458;2023-01-16T06:08:03;2.40;;;2.30;;
21833;SDS011;11079;51.092;3.458;2023-01-16T06:10:49;0.30;;;0.30;;
21833;SDS011;11079;51.092;3.458;2023-01-16T06:13:18;0.60;;;0.60;;
21833;SDS011;11079;51.092;3.458;2023-01-16T06:16:10;0.30;;;0.30;;
21833;SDS011;11079;51.092;3.458;2023-01-16T06:19:04;0.33;;;0.33;;
21833;SDS011;11079;51.092;3.458;2023-01-16T06:21:39;0.30;;;0.30;;
21833;SDS011;11079;51.092;3.458;2023-01-16T06:24:27;0.30;;;0.30;;
21833;SDS011;11079;51.092;3.458;2023-01-16T06:27:30;0.70;;;0.70;;
21833;SDS011;11079;51.092;3.458;2023-01-16T06:35:33;0.30;;;0.30;;
21833;SDS011;11079;51.092;3.458;2023-01-16T06:40:46;0.20;;;0.20;;
21833;SDS011;11079;51.092;3.458;2023-01-16T06:43:50;0.30;;;0.30;;
21833;SDS011;11079;51.092;3.458;2023-01-16T06:49:56;0.30;;;0.30;;
21833;SDS011;11079;51.092;3.458;2023-01-16T06:52:26;0.30;;;0.30;;
21833;SDS011;11079;51.092;3.458;2023-01-16T07:04:00;0.30;;;0.30;;
21833;SDS011;11079;51.092;3.458;2023-01-16T07:06:27;0.93;;;0.93;;
21833;SDS011;11079;51.092;3.458;2023-01-16T07:09:13;0.30;;;0.30;;
21833;SDS011;11079;51.092;3.458;2023-01-16T07:11:50;0.30;;;0.30;;
21833;SDS011;11079;51.092;3.458;2023-01-16T07:15:10;0.30;;;0.30;;
21833;SDS011;11079;51.092;3.458;2023-01-16T07:17:57;0.30;;;0.30;;
21833;SDS011;11079;51.092;3.458;2023-01-16T07:23:58;0.30;;;0.30;;
21833;SDS011;11079;51.092;3.458;2023-01-16T07:26:55;0.30;;;0.30;;
21833;SDS011;11079;51.092;3.458;2023-01-16T07:29:26;0.20;;;0.20;;
21833;SDS011;11079;51.092;3.458;2023-01-16T07:36:02;0.30;;;0.30;;
21833;SDS011;11079;51.092;3.458;2023-01-16T07:38:30;0.30;;;0.30;;
21833;SDS011;11079;51.092;3.458;2023-01-16T07:41:00;0.40;;;0.40;;
21833;SDS011;11079;51.092;3.458;2023-01-16T07:43:27;0.30;;;0.30;;
21833;SDS011;11079;51.092;3.458;2023-01-16T07:45:53;0.20;;;0.20;;
21833;SDS011;11079;51.092;3.458;2023-01-16T07:48:20;0.30;;;0.30;;
21833;SDS011;11079;51.092;3.458;2023-01-16T07:54:09;0.20;;;0.20;;
21833;SDS011;11079;51.092;3.458;2023-01-16T07:57:04;0.53;;;0.53;;
21833;SDS011;11079;51.092;3.458;2023-01-16T07:59:30;0.20;;;0.20;;
21833;SDS011;11079;51.092;3.458;2023-01-16T08:01:55;0.30;;;0.30;;
21833;SDS011;11079;51.092;3.458;2023-01-16T08:04:27;0.30;;;0.30;;
21833;SDS011;11079;51.092;3.458;2023-01-16T08:07:07;0.30;;;0.30;;
21833;SDS011;11079;51.092;3.458;2023-01-16T08:09:34;0.20;;;0.20;;
21833;SDS011;11079;51.092;3.458;2023-01-16T08:12:01;0.30;;;0.30;;
21833;SDS011;11079;51.092;3.458;2023-01-16T08:14:27;0.30;;;0.30;;
21833;SDS011;11079;51.092;3.458;2023-01-16T08:17:17;0.30;;;0.30;;
21833;SDS011;11079;51.092;3.458;2023-01-16T08:20:17;0.30;;;0.30;;
21833;SDS011;11079;51.092;3.458;2023-01-16T08:25:31;2.83;;;1.17;;
21833;SDS011;11079;51.092;3.458;2023-01-16T08:27:56;2.43;;;1.20;;
21833;SDS011;11079;51.092;3.458;2023-01-16T08:30:26;4.10;;;1.20;;
21833;SDS011;11079;51.092;3.458;2023-01-16T08:33:02;4.07;;;1.07;;
21833;SDS011;11079;51.092;3.458;2023-01-16T08:35:27;3.53;;;1.70;;
21833;SDS011;11079;51.092;3.458;2023-01-16T08:37:53;3.70;;;1.43;;
21833;SDS011;11079;51.092;3.458;2023-01-16T08:40:19;2.60;;;0.93;;
21833;SDS011;11079;51.092;3.458;2023-01-16T08:42:46;3.37;;;1.50;;
21833;SDS011;11079;51.092;3.458;2023-01-16T08:45:30;3.17;;;1.70;;
21833;SDS011;11079;51.092;3.458;2023-01-16T08:48:15;1.87;;;1.33;;
21833;SDS011;11079;51.092;3.458;2023-01-16T08:51:07;5.07;;;2.23;;
21833;SDS011;11079;51.092;3.458;2023-01-16T08:53:54;6.53;;;2.65;;
21833;SDS011;11079;51.092;3.458;2023-01-16T08:56:22;2.72;;;1.90;;
21833;SDS011;11079;51.092;3.458;2023-01-16T08:58:49;5.90;;;2.00;;
21833;SDS011;11079;51.092;3.458;2023-01-16T09:01:15;2.70;;;0.98;;
21833;SDS011;11079;51.092;3.458;2023-01-16T09:03:41;1.80;;;1.17;;
21833;SDS011;11079;51.092;3.458;2023-01-16T09:06:07;1.95;;;0.93;;
21833;SDS011;11079;51.092;3.458;2023-01-16T09:08:32;4.65;;;1.60;;
21833;SDS011;11079;51.092;3.458;2023-01-16T09:10:58;2.50;;;0.97;;
21833;SDS011;11079;51.092;3.458;2023-01-16T09:13:42;2.40;;;1.17;;
21833;SDS011;11079;51.092;3.458;2023-01-16T09:16:20;6.07;;;1.60;;
21833;SDS011;11079;51.092;3.458;2023-01-16T09:18:49;1.90;;;1.10;;
21833;SDS011;11079;51.092;3.458;2023-01-16T09:21:16;1.90;;;0.70;;
21833;SDS011;11079;51.092;3.458;2023-01-16T09:23:44;3.10;;;1.00;;
21833;SDS011;11079;51.092;3.458;2023-01-16T09:26:10;3.00;;;1.00;;
21833;SDS011;11079;51.092;3.458;2023-01-16T09:28:36;3.90;;;1.37;;
21833;SDS011;11079;51.092;3.458;2023-01-16T09:31:02;1.30;;;0.80;;
21833;SDS011;11079;51.092;3.458;2023-01-16T09:33:28;3.03;;;0.93;;
21833;SDS011;11079;51.092;3.458;2023-01-16T09:35:54;1.73;;;1.00;;
21833;SDS011;11079;51.092;3.458;2023-01-16T09:38:21;4.00;;;1.07;;
21833;SDS011;11079;51.092;3.458;2023-01-16T09:40:47;1.80;;;1.10;;
21833;SDS011;11079;51.092;3.458;2023-01-16T09:46:19;1.80;;;1.10;;
21833;SDS011;11079;51.092;3.458;2023-01-16T09:48:55;2.73;;;1.40;;
21833;SDS011;11079;51.092;3.458;2023-01-16T09:51:37;0.90;;;0.80;;
21833;SDS011;11079;51.092;3.458;2023-01-16T09:54:10;2.17;;;0.87;;
21833;SDS011;11079;51.092;3.458;2023-01-16T09:57:08;3.57;;;3.20;;
21833;SDS011;11079;51.092;3.458;2023-01-16T09:59:57;2.87;;;2.30;;
21833;SDS011;11079;51.092;3.458;2023-01-16T10:02:25;3.50;;;2.03;;
21833;SDS011;11079;51.092;3.458;2023-01-16T10:04:57;1.37;;;1.00;;
21833;SDS011;11079;51.092;3.458;2023-01-16T10:10:19;1.63;;;0.90;;
21833;SDS011;11079;51.092;3.458;2023-01-16T10:15:57;1.50;;;1.00;;
21833;SDS011;11079;51.092;3.458;2023-01-16T10:21:51;1.63;;;0.80;;
21833;SDS011;11079;51.092;3.458;2023-01-16T10:30:37;0.70;;;0.70;;
21833;SDS011;11079;51.092;3.458;2023-01-16T10:33:14;1.65;;;0.95;;
21833;SDS011;11079;51.092;3.458;2023-01-16T10:35:48;1.05;;;0.63;;
21833;SDS011;11079;51.092;3.458;2023-01-16T10:40:41;2.08;;;0.70;;
21833;SDS011;11079;51.092;3.458;2023-01-16T10:43:19;0.95;;;0.60;;
21833;SDS011;11079;51.092;3.458;2023-01-16T10:46:19;1.60;;;1.13;;
21833;SDS011;11079;51.092;3.458;2023-01-16T10:49:06;3.72;;;0.95;;
21833;SDS011;11079;51.092;3.458;2023-01-16T10:51:52;1.80;;;0.70;;
21833;SDS011;11079;51.092;3.458;2023-01-16T10:54:22;2.35;;;0.60;;
21833;SDS011;11079;51.092;3.458;2023-01-16T10:56:48;2.42;;;1.17;;
21833;SDS011;11079;51.092;3.458;2023-01-16T10:59:14;1.90;;;1.30;;
21833;SDS011;11079;51.092;3.458;2023-01-16T11:01:44;1.73;;;0.90;;
21833;SDS011;11079;51.092;3.458;2023-01-16T11:04:20;2.17;;;1.10;;
21833;SDS011;11079;51.092;3.458;2023-01-16T11:07:12;0.52;;;0.50;;
21833;SDS011;11079;51.092;3.458;2023-01-16T11:09:40;1.42;;;0.98;;
21833;SDS011;11079;51.092;3.458;2023-01-16T11:12:10;0.50;;;0.50;;
21833;SDS011;11079;51.092;3.458;2023-01-16T11:15:09;1.42;;;1.23;;
21833;SDS011;11079;51.092;3.458;2023-01-16T11:18:21;2.72;;;0.90;;
21833;SDS011;11079;51.092;3.458;2023-01-16T11:21:13;1.98;;;1.00;;
21833;SDS011;11079;51.092;3.458;2023-01-16T11:23:49;1.75;;;1.17;;
21833;SDS011;11079;51.092;3.458;2023-01-16T11:26:29;2.13;;;0.95;;
21833;SDS011;11079;51.092;3.458;2023-01-16T11:28:58;2.10;;;1.33;;
21833;SDS011;11079;51.092;3.458;2023-01-16T11:31:25;0.93;;;0.80;;
21833;SDS011;11079;51.092;3.458;2023-01-16T11:34:00;5.07;;;3.13;;
21833;SDS011;11079;51.092;3.458;2023-01-16T11:36:30;1.73;;;1.00;;
21833;SDS011;11079;51.092;3.458;2023-01-16T11:38:58;2.83;;;1.20;;
21833;SDS011;11079;51.092;3.458;2023-01-16T11:41:29;2.00;;;1.00;;
21833;SDS011;11079;51.092;3.458;2023-01-16T11:47:12;5.97;;;2.40;;
21833;SDS011;11079;51.092;3.458;2023-01-16T11:49:44;1.73;;;1.20;;
21833;SDS011;11079;51.092;3.458;2023-01-16T11:52:15;2.35;;;1.33;;
21833;SDS011;11079;51.092;3.458;2023-01-16T11:54:54;3.93;;;1.20;;
21833;SDS011;11079;51.092;3.458;2023-01-16T11:57:33;2.10;;;1.23;;
21833;SDS011;11079;51.092;3.458;2023-01-16T12:00:24;2.25;;;1.60;;
21833;SDS011;11079;51.092;3.458;2023-01-16T12:05:51;3.90;;;1.52;;
21833;SDS011;11079;51.092;3.458;2023-01-16T12:11:13;1.92;;;1.63;;
21833;SDS011;11079;51.092;3.458;2023-01-16T12:19:34;3.27;;;1.77;;
21833;SDS011;11079;51.092;3.458;2023-01-16T12:28:21;4.47;;;2.40;;
21833;SDS011;11079;51.092;3.458;2023-01-16T12:37:40;3.60;;;2.63;;
21833;SDS011;11079;51.092;3.458;2023-01-16T12:40:29;3.85;;;2.70;;
21833;SDS011;11079;51.092;3.458;2023-01-16T13:14:14;3.38;;;1.80;;
21833;SDS011;11079;51.092;3.458;2023-01-16T13:20:47;2.95;;;2.05;;
21833;SDS011;11079;51.092;3.458;2023-01-16T14:13:49;0.80;;;0.80;;
21833;SDS011;11079;51.092;3.458;2023-01-16T14:21:04;1.37;;;0.60;;
21833;SDS011;11079;51.092;3.458;2023-01-16T14:40:48;4.13;;;0.90;;
21833;SDS011;11079;51.092;3.458;2023-01-16T14:46:58;10.13;;;1.20;;
21833;SDS011;11079;51.092;3.458;2023-01-16T14:50:06;5.53;;;0.90;;
21833;SDS011;11079;51.092;3.458;2023-01-16T14:53:10;6.80;;;1.10;;
21833;SDS011;11079;51.092;3.458;2023-01-16T14:56:10;2.33;;;0.87;;
21833;SDS011;11079;51.092;3.458;2023-01-16T14:59:11;1.97;;;0.90;;
21833;SDS011;11079;51.092;3.458;2023-01-16T15:02:01;3.77;;;0.87;;
21833;SDS011;11079;51.092;3.458;2023-01-16T15:04:56;2.97;;;0.80;;
21833;SDS011;11079;51.092;3.458;2023-01-16T15:08:15;1.20;;;0.60;;
21833;SDS011;11079;51.092;3.458;2023-01-16T15:10:38;4.27;;;0.70;;
21833;SDS011;11079;51.092;3.458;2023-01-16T15:13:11;0.20;;;0.20;;
21833;SDS011;11079;51.092;3.458;2023-01-16T15:15:37;0.77;;;0.77;;
21833;SDS011;11079;51.092;3.458;2023-01-16T15:18:08;0.30;;;0.30;;
21833;SDS011;11079;51.092;3.458;2023-01-16T15:20:57;0.67;;;0.67;;
21833;SDS011;11079;51.092;3.458;2023-01-16T15:23:43;0.30;;;0.30;;
21833;SDS011;11079;51.092;3.458;2023-01-16T15:28:50;0.20;;;0.20;;
21833;SDS011;11079;51.092;3.458;2023-01-16T15:32:31;0.30;;;0.30;;
21833;SDS011;11079;51.092;3.458;2023-01-16T15:34:43;0.30;;;0.30;;
21833;SDS011;11079;51.092;3.458;2023-01-16T15:37:20;0.23;;;0.23;;
21833;SDS011;11079;51.092;3.458;2023-01-16T15:39:47;0.30;;;0.30;;
21833;SDS011;11079;51.092;3.458;2023-01-16T15:42:16;0.20;;;0.20;;
21833;SDS011;11079;51.092;3.458;2023-01-16T15:45:14;0.40;;;0.40;;
21833;SDS011;11079;51.092;3.458;2023-01-16T15:48:11;5.20;;;1.50;;
21833;SDS011;11079;51.092;3.458;2023-01-16T15:53:14;6.03;;;1.30;;
21833;SDS011;11079;51.092;3.458;2023-01-16T15:55:42;6.83;;;1.83;;
21833;SDS011;11079;51.092;3.458;2023-01-16T15:58:15;5.27;;;2.07;;
21833;SDS011;11079;51.092;3.458;2023-01-16T16:00:43;5.23;;;1.80;;
21833;SDS011;11079;51.092;3.458;2023-01-16T16:03:32;3.03;;;1.07;;
21833;SDS011;11079;51.092;3.458;2023-01-16T16:06:08;4.53;;;1.40;;
21833;SDS011;11079;51.092;3.458;2023-01-16T16:08:36;6.10;;;1.30;;
21833;SDS011;11079;51.092;3.458;2023-01-16T16:11:05;6.50;;;1.40;;
21833;SDS011;11079;51.092;3.458;2023-01-16T16:13:53;3.93;;;0.83;;
21833;SDS011;11079;51.092;3.458;2023-01-16T16:16:21;5.17;;;1.87;;
21833;SDS011;11079;51.092;3.458;2023-01-16T16:19:11;2.47;;;1.10;;
21833;SDS011;11079;51.092;3.458;2023-01-16T16:21:56;4.17;;;1.20;;
21833;SDS011;11079;51.092;3.458;2023-01-16T16:24:42;6.37;;;1.30;;
21833;SDS011;11079;51.092;3.458;2023-01-16T16:27:11;1.50;;;1.07;;
21833;SDS011;11079;51.092;3.458;2023-01-16T16:29:39;6.40;;;1.47;;
21833;SDS011;11079;51.092;3.458;2023-01-16T16:32:05;5.77;;;1.73;;
21833;SDS011;11079;51.092;3.458;2023-01-16T16:34:36;0.20;;;0.20;;
21833;SDS011;11079;51.092;3.458;2023-01-16T16:37:08;0.53;;;0.53;;
21833;SDS011;11079;51.092;3.458;2023-01-16T16:42:18;0.30;;;0.30;;
21833;SDS011;11079;51.092;3.458;2023-01-16T16:51:08;0.20;;;0.20;;
21833;SDS011;11079;51.092;3.458;2023-01-16T16:53:14;0.30;;;0.30;;
21833;SDS011;11079;51.092;3.458;2023-01-16T16:55:47;0.50;;;0.50;;
21833;SDS011;11079;51.092;3.458;2023-01-16T16:58:23;0.30;;;0.30;;
21833;SDS011;11079;51.092;3.458;2023-01-16T17:00:51;0.80;;;0.80;;
21833;SDS011;11079;51.092;3.458;2023-01-16T17:03:18;0.20;;;0.20;;
21833;SDS011;11079;51.092;3.458;2023-01-16T17:06:00;0.30;;;0.30;;
21833;SDS011;11079;51.092;3.458;2023-01-16T17:08:40;0.30;;;0.30;;
21833;SDS011;11079;51.092;3.458;2023-01-16T17:11:35;0.30;;;0.30;;
21833;SDS011;11079;51.092;3.458;2023-01-16T17:14:12;0.50;;;0.50;;
21833;SDS011;11079;51.092;3.458;2023-01-16T17:16:41;0.50;;;0.50;;
21833;SDS011;11079;51.092;3.458;2023-01-16T17:22:31;0.87;;;0.87;;
21833;SDS011;11079;51.092;3.458;2023-01-16T17:25:18;0.30;;;0.30;;
21833;SDS011;11079;51.092;3.458;2023-01-16T17:37:00;7.60;;;2.00;;
21833;SDS011;11079;51.092;3.458;2023-01-16T17:43:15;12.87;;;3.00;;
21833;SDS011;11079;51.092;3.458;2023-01-16T17:46:25;13.13;;;2.03;;
21833;SDS011;11079;51.092;3.458;2023-01-16T17:49:00;6.70;;;2.07;;
21833;SDS011;11079;51.092;3.458;2023-01-16T17:51:42;6.97;;;1.83;;
21833;SDS011;11079;51.092;3.458;2023-01-16T17:57:27;5.40;;;1.50;;
21833;SDS011;11079;51.092;3.458;2023-01-16T18:03:14;6.57;;;1.50;;
21833;SDS011;11079;51.092;3.458;2023-01-16T18:12:19;4.67;;;1.17;;
21833;SDS011;11079;51.092;3.458;2023-01-16T18:22:10;4.67;;;1.27;;
21833;SDS011;11079;51.092;3.458;2023-01-16T18:38:06;3.97;;;1.23;;
21833;SDS011;11079;51.092;3.458;2023-01-16T18:41:18;3.53;;;1.70;;
21833;SDS011;11079;51.092;3.458;2023-01-16T18:44:23;6.30;;;1.83;;
21833;SDS011;11079;51.092;3.458;2023-01-16T18:49:58;6.43;;;1.27;;
21833;SDS011;11079;51.092;3.458;2023-01-16T19:02:55;9.40;;;1.90;;
21833;SDS011;11079;51.092;3.458;2023-01-16T19:12:04;12.50;;;3.27;;
21833;SDS011;11079;51.092;3.458;2023-01-16T19:14:32;8.60;;;2.40;;
21833;SDS011;11079;51.092;3.458;2023-01-16T19:17:01;12.13;;;2.67;;
21833;SDS011;11079;51.092;3.458;2023-01-16T19:19:29;6.13;;;1.67;;
21833;SDS011;11079;51.092;3.458;2023-01-16T19:21:58;7.47;;;1.80;;
21833;SDS011;11079;51.092;3.458;2023-01-16T19:24:25;10.60;;;2.47;;
21833;SDS011;11079;51.092;3.458;2023-01-16T19:26:54;8.90;;;2.20;;
21833;SDS011;11079;51.092;3.458;2023-01-16T19:29:21;8.73;;;2.07;;
21833;SDS011;11079;51.092;3.458;2023-01-16T19:31:47;7.77;;;1.97;;
21833;SDS011;11079;51.092;3.458;2023-01-16T19:34:14;7.67;;;2.10;;
21833;SDS011;11079;51.092;3.458;2023-01-16T19:36:50;4.77;;;1.23;;
21833;SDS011;11079;51.092;3.458;2023-01-16T19:39:28;7.60;;;2.13;;
21833;SDS011;11079;51.092;3.458;2023-01-16T19:41:54;9.47;;;1.70;;
21833;SDS011;11079;51.092;3.458;2023-01-16T19:44:38;8.60;;;1.97;;
21833;SDS011;11079;51.092;3.458;2023-01-16T19:47:26;7.07;;;1.70;;
21833;SDS011;11079;51.092;3.458;2023-01-16T19:50:00;5.37;;;1.70;;
21833;SDS011;11079;51.092;3.458;2023-01-16T19:52:33;8.10;;;1.90;;
21833;SDS011;11079;51.092;3.458;2023-01-16T19:55:07;9.27;;;2.77;;
21833;SDS011;11079;51.092;3.458;2023-01-16T19:58:06;9.67;;;2.03;;
21833;SDS011;11079;51.092;3.458;2023-01-16T20:00:37;3.83;;;1.70;;
21833;SDS011;11079;51.092;3.458;2023-01-16T20:03:07;8.57;;;2.40;;
21833;SDS011;11079;51.092;3.458;2023-01-16T20:05:43;5.83;;;1.80;;
21833;SDS011;11079;51.092;3.458;2023-01-16T20:08:31;21.80;;;2.50;;
21833;SDS011;11079;51.092;3.458;2023-01-16T20:11:08;6.30;;;1.80;;
21833;SDS011;11079;51.092;3.458;2023-01-16T20:16:58;4.10;;;1.30;;
21833;SDS011;11079;51.092;3.458;2023-01-16T20:19:57;5.90;;;1.43;;
21833;SDS011;11079;51.092;3.458;2023-01-16T20:22:29;4.43;;;1.63;;
21833;SDS011;11079;51.092;3.458;2023-01-16T20:25:19;4.93;;;1.30;;
21833;SDS011;11079;51.092;3.458;2023-01-16T20:28:40;11.70;;;2.10;;
21833;SDS011;11079;51.092;3.458;2023-01-16T20:31:24;7.30;;;1.90;;
21833;SDS011;11079;51.092;3.458;2023-01-16T20:33:57;5.30;;;1.40;;
21833;SDS011;11079;51.092;3.458;2023-01-16T20:36:30;11.90;;;1.97;;
21833;SDS011;11079;51.092;3.458;2023-01-16T20:39:17;6.00;;;1.90;;
21833;SDS011;11079;51.092;3.458;2023-01-16T20:41:54;3.17;;;1.27;;
21833;SDS011;11079;51.092;3.458;2023-01-16T20:44:41;3.40;;;1.20;;
21833;SDS011;11079;51.092;3.458;2023-01-16T20:47:34;2.10;;;1.03;;
21833;SDS011;11079;51.092;3.458;2023-01-16T20:50:05;4.53;;;1.40;;
21833;SDS011;11079;51.092;3.458;2023-01-16T20:52:36;7.20;;;1.67;;
21833;SDS011;11079;51.092;3.458;2023-01-16T20:55:13;8.13;;;1.40;;
21833;SDS011;11079;51.092;3.458;2023-01-16T20:57:48;4.17;;;1.47;;
21833;SDS011;11079;51.092;3.458;2023-01-16T21:03:35;3.83;;;1.23;;
21833;SDS011;11079;51.092;3.458;2023-01-16T21:09:25;6.97;;;1.77;;
21833;SDS011;11079;51.092;3.458;2023-01-16T21:11:57;9.60;;;1.70;;
21833;SDS011;11079;51.092;3.458;2023-01-16T21:14:41;7.97;;;1.63;;
21833;SDS011;11079;51.092;3.458;2023-01-16T21:20:42;7.70;;;2.43;;
21833;SDS011;11079;51.092;3.458;2023-01-16T21:23:34;5.07;;;2.00;;
21833;SDS011;11079;51.092;3.458;2023-01-16T21:29:16;5.20;;;1.50;;
21833;SDS011;11079;51.092;3.458;2023-01-16T21:31:41;8.43;;;1.60;;
21833;SDS011;11079;51.092;3.458;2023-01-16T21:34:14;4.57;;;1.53;;
21833;SDS011;11079;51.092;3.458;2023-01-16T22:00:40;7.83;;;1.90;;
